OMSJ/SHJ METAR and TAF weather

Enter ICAO airport designator
Station Type Date Time Source
OMSJ METAR 2022/01/29 02:00 UTC NOAA

OMSJ 290200Z 16006KT 6000 NSC 17/14 Q1017 NOSIG


Station Type Date Time Source
OMSJ Decoded METAR 2022/01/29 02:00 UTC NOAA

Sharjah International Airport, United Arab Emirates (OMSJ) 25-20N 055-31E 33M
Jan 28, 2022 - 09:00 PM EST / 2022.01.29 0200 UTC
Wind: from the SSE (160 degrees) at 7 MPH (6 KT):0
Visibility: 3 mile(s):0
Temperature: 62 F (17 C)
Dew Point: 57 F (14 C)
Relative Humidity: 82%
Pressure (altimeter): 30.03 in. Hg (1017 hPa)
ob: OMSJ 290200Z 16006KT 6000 NSC 17/14 Q1017 NOSIG
cycle: 2

Station Type Date Time Source
OMSJ TAF 2022/01/28 18:06 UTC NOAA

TAF OMSJ 281700Z 2818/3000 20005KT CAVOK
BECMG 2906/2908 29010KT
BECMG 2916/2918 18005KT

Example: see airport list